Time;durP1;ratioP1;P1;durP2;ratioP2;P2;SDS_P1;SDS_P2;PMS_P1;PMS_P2;Temp;Humidity;BMP_temperature;BMP_pressure;BME280_temperature;BME280_humidity;BME280_pressure;Samples;Min_cycle;Max_cycle;Signal;HPM_P1;HPM_P2
2022/12/06 00:02:30;;;;;;;392.73;161.77;;;4.80;99.90;;;;;;10327070;28;20449;-82
2022/12/06 00:07:31;;;;;;;400.10;152.53;;;4.80;99.90;;;;;;10323022;28;20046;-83
2022/12/06 00:12:32;;;;;;;420.30;157.93;;;4.80;99.90;;;;;;10322347;28;20046;-82
2022/12/06 00:17:32;;;;;;;311.07;123.47;;;4.80;99.90;;;;;;10321360;28;20038;-83
2022/12/06 00:22:33;;;;;;;362.07;125.53;;;4.80;99.90;;;;;;10322374;28;20046;-83
2022/12/06 00:27:33;;;;;;;338.20;113.93;;;4.90;99.90;;;;;;10321341;28;20433;-82
2022/12/06 00:32:34;;;;;;;296.67;103.93;;;4.80;99.90;;;;;;10319971;28;20046;-82
2022/12/06 00:37:34;;;;;;;243.83;85.40;;;4.80;99.90;;;;;;10322024;28;20109;-82
2022/12/06 00:42:35;;;;;;;205.50;73.90;;;4.80;99.90;;;;;;10321185;28;20126;-83
2022/12/06 00:47:35;;;;;;;229.70;77.20;;;4.80;99.90;;;;;;10320179;28;20038;-82
2022/12/06 00:52:36;;;;;;;202.67;80.33;;;4.80;99.90;;;;;;10320223;28;20053;-83
2022/12/06 00:57:36;;;;;;;243.70;91.20;;;4.90;99.90;;;;;;10320417;28;20034;-82
2022/12/06 01:02:37;;;;;;;270.03;99.13;;;5.00;99.90;;;;;;10319037;28;20557;-83
2022/12/06 01:07:37;;;;;;;251.57;94.73;;;5.00;99.90;;;;;;10320188;28;20073;-83
2022/12/06 01:12:38;;;;;;;282.47;93.37;;;5.00;99.90;;;;;;10320838;28;20094;-83
2022/12/06 01:17:39;;;;;;;358.23;99.23;;;5.00;99.90;;;;;;10318439;28;20070;-83
2022/12/06 01:22:39;;;;;;;314.00;100.23;;;5.00;99.90;;;;;;10319385;28;20033;-83
2022/12/06 01:27:40;;;;;;;308.27;94.60;;;4.90;99.90;;;;;;10319135;28;20091;-83
2022/12/06 01:32:40;;;;;;;349.73;100.77;;;4.90;99.90;;;;;;10318153;28;20125;-82
2022/12/06 01:37:41;;;;;;;374.27;111.67;;;4.80;99.90;;;;;;10319459;28;20500;-82
2022/12/06 01:42:41;;;;;;;439.40;123.13;;;4.80;99.90;;;;;;10327507;28;20057;-82
2022/12/06 01:47:43;;;;;;;474.30;129.60;;;4.70;99.90;;;;;;10332039;28;20096;-82
2022/12/06 01:53:02;;;;;;;457.73;117.87;;;4.60;99.90;;;;;;10323164;28;20038;-82
2022/12/06 01:58:11;;;;;;;441.93;117.37;;;4.60;99.90;;;;;;10332750;28;20041;-82
2022/12/06 02:03:20;;;;;;;471.03;120.70;;;4.50;99.90;;;;;;10331727;28;20041;-82
2022/12/06 02:08:22;;;;;;;523.43;135.43;;;4.40;99.90;;;;;;10331891;28;20054;-82
2022/12/06 02:13:23;;;;;;;562.00;138.33;;;4.50;99.90;;;;;;10333370;28;20053;-82
2022/12/06 02:18:35;;;;;;;528.23;132.87;;;4.40;99.90;;;;;;10330993;28;20034;-81
2022/12/06 02:23:36;;;;;;;550.37;131.23;;;4.50;99.90;;;;;;10330416;28;20065;-82
2022/12/06 02:29:18;;;;;;;479.03;118.77;;;4.50;99.90;;;;;;10331330;28;20057;-82
2022/12/06 02:34:41;;;;;;;438.47;113.37;;;4.50;99.90;;;;;;10327050;28;20715;-82
2022/12/06 02:39:49;;;;;;;342.33;92.77;;;4.50;99.90;;;;;;10332326;28;20540;-82
2022/12/06 02:44:55;;;;;;;413.93;102.50;;;4.50;99.90;;;;;;10331667;28;20046;-82
2022/12/06 02:49:57;;;;;;;398.77;100.65;;;4.50;99.90;;;;;;10324925;28;20078;-82
2022/12/06 02:55:00;;;;;;;353.83;96.87;;;4.50;99.90;;;;;;10325098;28;20034;-82
2022/12/06 03:00:00;;;;;;;370.40;89.17;;;4.50;99.90;;;;;;10325233;28;20030;-83
2022/12/06 03:05:09;;;;;;;416.00;104.00;;;4.50;99.90;;;;;;10323740;28;20033;-82
2022/12/06 03:10:18;;;;;;;354.40;93.27;;;4.50;99.90;;;;;;10325459;28;20066;-82
2022/12/06 03:15:48;;;;;;;304.03;84.23;;;4.50;99.90;;;;;;10323608;28;20054;-82
2022/12/06 03:21:14;;;;;;;345.87;93.40;;;4.50;99.90;;;;;;10324833;28;20069;-82
2022/12/06 03:26:20;;;;;;;326.02;94.40;;;4.50;99.90;;;;;;10324498;28;20088;-82
2022/12/06 03:31:23;;;;;;;202.48;60.47;;;4.60;99.90;;;;;;10322645;28;20081;-82
2022/12/06 03:36:26;;;;;;;261.83;74.57;;;4.50;99.90;;;;;;10323646;28;20449;-81
2022/12/06 03:41:34;;;;;;;274.47;78.50;;;4.50;99.90;;;;;;10323247;28;20034;-81
2022/12/06 03:46:40;;;;;;;286.90;79.30;;;4.50;99.90;;;;;;10321353;28;20030;-81
2022/12/06 03:51:42;;;;;;;335.53;89.03;;;4.50;99.90;;;;;;10323452;28;20038;-82
2022/12/06 03:56:43;;;;;;;307.50;79.23;;;4.50;99.90;;;;;;10322489;28;20046;-82
2022/12/06 04:01:43;;;;;;;277.47;76.37;;;4.50;99.90;;;;;;10321547;28;20042;-82
2022/12/06 04:06:44;;;;;;;258.67;74.13;;;4.50;99.90;;;;;;10321314;28;20735;-81
2022/12/06 04:11:45;;;;;;;269.10;72.70;;;4.50;99.90;;;;;;10322568;28;20054;-82
2022/12/06 04:48:41;;;;;;;289.13;72.03;;;4.70;99.90;;;;;;10333174;28;20038;-82
2022/12/06 04:53:41;;;;;;;218.13;58.20;;;4.70;99.90;;;;;;10319747;28;20798;-82
2022/12/06 04:58:43;;;;;;;293.83;77.83;;;4.70;99.90;;;;;;10319770;28;20093;-82
2022/12/06 05:03:43;;;;;;;604.47;200.53;;;4.60;99.90;;;;;;10319226;28;20106;-82
2022/12/06 05:08:44;;;;;;;698.70;214.33;;;4.60;99.90;;;;;;10319444;28;20058;-83
2022/12/06 05:13:44;;;;;;;579.77;211.10;;;4.70;99.90;;;;;;10319624;28;20027;-84
2022/12/06 05:18:45;;;;;;;396.57;104.60;;;4.70;99.90;;;;;;10318949;28;20038;-85
2022/12/06 05:23:46;;;;;;;414.50;101.83;;;4.80;99.90;;;;;;10319227;28;20521;-86
2022/12/06 05:28:47;;;;;;;398.73;96.43;;;4.70;99.90;;;;;;10315246;28;20030;-83
2022/12/06 05:33:48;;;;;;;487.87;115.70;;;4.80;99.90;;;;;;10313881;28;20145;-82
2022/12/06 05:38:50;;;;;;;328.13;83.90;;;4.80;99.90;;;;;;10320162;28;20042;-81
2022/12/06 05:43:50;;;;;;;355.97;90.33;;;4.80;99.90;;;;;;10318075;28;20568;-83
2022/12/06 05:48:51;;;;;;;314.60;79.70;;;4.80;99.90;;;;;;10317758;28;20129;-82
2022/12/06 05:53:51;;;;;;;393.53;92.73;;;4.80;99.90;;;;;;10319284;28;20045;-81
2022/12/06 05:58:52;;;;;;;445.13;120.37;;;4.80;99.90;;;;;;10319723;28;20045;-81
2022/12/06 06:03:53;;;;;;;392.10;99.00;;;4.80;99.90;;;;;;10317750;28;20023;-82
2022/12/06 06:08:53;;;;;;;330.97;92.40;;;4.80;99.90;;;;;;10318768;28;20054;-82
2022/12/06 06:13:54;;;;;;;309.37;86.37;;;4.80;99.90;;;;;;10319466;28;20015;-81
2022/12/06 06:18:54;;;;;;;325.40;89.17;;;4.70;99.90;;;;;;10317264;28;20363;-82
2022/12/06 06:23:56;;;;;;;347.97;89.27;;;4.70;99.90;;;;;;10318691;28;20050;-81
2022/12/06 06:28:56;;;;;;;269.40;81.53;;;4.70;99.90;;;;;;10321923;28;20037;-81
2022/12/06 06:33:57;;;;;;;269.43;77.53;;;4.60;99.90;;;;;;10326264;28;20069;-81
2022/12/06 06:38:57;;;;;;;336.00;88.83;;;4.60;99.90;;;;;;10325943;28;20493;-81
2022/12/06 06:43:58;;;;;;;315.90;87.63;;;4.50;99.90;;;;;;10325963;28;20511;-83
2022/12/06 06:48:58;;;;;;;399.50;95.10;;;4.50;99.90;;;;;;10312067;28;20042;-83
2022/12/06 06:53:59;;;;;;;449.10;134.27;;;4.50;99.90;;;;;;10325882;28;20030;-83
2022/12/06 06:59:00;;;;;;;408.57;111.67;;;4.50;99.90;;;;;;10324930;28;20137;-83
2022/12/06 07:04:01;;;;;;;446.27;125.67;;;4.60;99.90;;;;;;10325593;28;20038;-83
2022/12/06 07:09:02;;;;;;;360.83;111.20;;;4.60;99.90;;;;;;10324806;28;20096;-82
2022/12/06 07:14:03;;;;;;;486.23;134.50;;;4.60;99.90;;;;;;10325024;28;20036;-83
2022/12/06 07:19:03;;;;;;;379.10;112.17;;;4.60;99.90;;;;;;10324467;28;20029;-82
2022/12/06 07:24:04;;;;;;;268.87;84.17;;;4.70;99.90;;;;;;10323833;28;20124;-83
2022/12/06 07:29:04;;;;;;;291.30;85.27;;;4.70;99.90;;;;;;10324162;28;20160;-83
2022/12/06 07:34:05;;;;;;;243.37;77.70;;;4.60;99.90;;;;;;10324006;28;20096;-82
2022/12/06 07:39:06;;;;;;;348.80;85.77;;;4.60;99.90;;;;;;10323843;28;20042;-83
2022/12/06 07:49:28;;;;;;;301.20;84.27;;;4.70;99.90;;;;;;10323501;28;20137;-83
2022/12/06 07:54:29;;;;;;;252.10;77.50;;;4.70;99.90;;;;;;10323897;28;20393;-83
2022/12/06 07:59:29;;;;;;;279.77;83.77;;;4.70;99.90;;;;;;10323217;28;20034;-83
2022/12/06 08:04:30;;;;;;;259.77;77.50;;;4.70;99.90;;;;;;10322296;28;20117;-83
2022/12/06 08:09:30;;;;;;;284.97;80.70;;;4.70;99.90;;;;;;10320679;28;20145;-83
2022/12/06 08:14:31;;;;;;;301.73;82.53;;;4.60;99.90;;;;;;10322765;28;20127;-82
2022/12/06 08:19:32;;;;;;;301.37;83.40;;;4.80;99.90;;;;;;10322619;28;20027;-83
2022/12/06 08:24:32;;;;;;;302.30;82.63;;;4.70;99.90;;;;;;10322632;28;20121;-83
2022/12/06 08:29:33;;;;;;;262.90;75.33;;;4.70;99.90;;;;;;10322729;28;20030;-83
2022/12/06 08:34:33;;;;;;;210.13;63.07;;;4.60;99.90;;;;;;10321687;28;20026;-83
2022/12/06 08:39:34;;;;;;;257.27;75.97;;;4.70;99.90;;;;;;10320705;28;20026;-83
2022/12/06 08:44:35;;;;;;;223.63;64.53;;;4.70;99.90;;;;;;10321520;28;20050;-84
2022/12/06 08:49:36;;;;;;;379.90;105.33;;;4.70;99.90;;;;;;10321075;28;20034;-84
2022/12/06 08:54:38;;;;;;;419.83;121.40;;;4.80;99.90;;;;;;10321587;28;20093;-83
2022/12/06 08:59:38;;;;;;;319.63;93.70;;;4.90;99.90;;;;;;10320977;28;20019;-83
2022/12/06 09:04:39;;;;;;;323.57;101.40;;;5.00;99.90;;;;;;10321324;28;20787;-83
2022/12/06 09:09:39;;;;;;;343.03;99.07;;;5.10;99.90;;;;;;10320599;28;20494;-83
2022/12/06 09:14:40;;;;;;;366.47;108.73;;;5.10;99.90;;;;;;10320304;28;20022;-84
2022/12/06 09:19:41;;;;;;;311.47;87.63;;;5.10;99.90;;;;;;10320820;28;20033;-83
2022/12/06 09:24:41;;;;;;;417.77;153.73;;;5.20;99.90;;;;;;10306793;28;20037;-84
2022/12/06 09:29:42;;;;;;;267.77;88.33;;;5.20;99.90;;;;;;10320545;28;20052;-84
2022/12/06 09:34:42;;;;;;;240.10;75.77;;;5.30;99.90;;;;;;10320311;28;20479;-84
2022/12/06 09:39:47;;;;;;;250.13;83.87;;;5.30;99.90;;;;;;10320505;28;20165;-84
2022/12/06 09:45:18;;;;;;;273.03;83.30;;;5.30;99.90;;;;;;10319955;28;20030;-83
2022/12/06 09:50:37;;;;;;;176.87;56.43;;;5.40;99.90;;;;;;10305104;28;20129;-84
2022/12/06 09:55:43;;;;;;;222.70;65.47;;;5.40;99.90;;;;;;10319990;28;20030;-84
2022/12/06 10:01:19;;;;;;;272.40;92.38;;;5.30;99.90;;;;;;10320400;28;20037;-84
2022/12/06 10:06:22;;;;;;;193.13;67.65;;;5.40;99.90;;;;;;10327643;28;20620;-84
2022/12/06 10:11:41;;;;;;;269.20;79.60;;;5.40;99.90;;;;;;10327708;28;20062;-83
2022/12/06 10:17:00;;;;;;;281.17;84.13;;;5.40;99.90;;;;;;10327351;28;20807;-83
2022/12/06 10:22:18;;;;;;;311.07;90.90;;;5.40;99.90;;;;;;10327737;28;20674;-80
2022/12/06 10:27:39;;;;;;;299.37;93.60;;;5.40;99.90;;;;;;10326601;28;20041;-83
2022/12/06 10:33:14;;;;;;;278.73;83.60;;;5.30;99.90;;;;;;10303328;28;20051;-82
2022/12/06 10:38:22;;;;;;;180.60;66.90;;;5.30;99.90;;;;;;10325637;28;20069;-84
2022/12/06 10:43:26;;;;;;;205.13;75.80;;;5.30;99.90;;;;;;10326334;28;20902;-83
2022/12/06 10:48:31;;;;;;;139.43;53.50;;;5.20;99.90;;;;;;10326580;28;20053;-85
2022/12/06 10:53:40;;;;;;;151.13;53.37;;;5.10;99.90;;;;;;10326080;28;20041;-83
2022/12/06 10:58:49;;;;;;;117.43;48.37;;;5.10;99.90;;;;;;10325791;28;20022;-85
2022/12/06 11:04:01;;;;;;;75.93;30.13;;;5.10;99.90;;;;;;10325621;28;20026;-86
2022/12/06 11:09:18;;;;;;;83.80;35.70;;;4.90;99.90;;;;;;10325083;28;20062;-83
2022/12/06 11:14:26;;;;;;;73.40;30.43;;;4.80;99.90;;;;;;10324255;28;20026;-83
2022/12/06 11:19:43;;;;;;;67.83;29.87;;;4.70;99.90;;;;;;10324920;28;20062;-83
2022/12/06 11:25:06;;;;;;;91.57;35.77;;;4.70;99.90;;;;;;10325120;28;20025;-84
2022/12/06 11:30:18;;;;;;;93.03;34.23;;;4.70;99.90;;;;;;10324242;28;20094;-84
2022/12/06 11:35:25;;;;;;;90.47;35.27;;;4.80;99.90;;;;;;10324324;28;20608;-84
2022/12/06 11:40:34;;;;;;;101.97;40.57;;;4.80;99.90;;;;;;10322135;28;20030;-83
2022/12/06 11:45:38;;;;;;;89.83;36.73;;;4.70;99.90;;;;;;10324285;28;20486;-85
2022/12/06 11:50:41;;;;;;;89.30;37.23;;;4.70;99.90;;;;;;10323250;28;20121;-86
2022/12/06 11:55:45;;;;;;;102.07;40.70;;;4.60;99.90;;;;;;10322557;28;20030;-85
2022/12/06 12:01:04;;;;;;;103.07;41.87;;;4.50;99.90;;;;;;10322928;28;20073;-85
2022/12/06 12:06:07;;;;;;;105.57;43.83;;;4.50;99.90;;;;;;10323332;28;20045;-83
2022/12/06 12:11:19;;;;;;;105.37;41.40;;;4.50;99.90;;;;;;10322418;28;20062;-83
2022/12/06 12:16:22;;;;;;;131.57;44.93;;;4.50;99.90;;;;;;10322855;28;20030;-85
2022/12/06 12:21:37;;;;;;;71.60;30.17;;;4.50;99.90;;;;;;10322088;28;20076;-85
2022/12/06 12:26:40;;;;;;;107.17;44.30;;;4.50;99.90;;;;;;10314279;28;20026;-84
2022/12/06 12:31:53;;;;;;;105.70;42.30;;;4.40;99.90;;;;;;10320546;28;20041;-83
2022/12/06 12:36:57;;;;;;;88.70;36.83;;;4.40;99.90;;;;;;10322064;28;20022;-83
2022/12/06 12:41:59;;;;;;;85.40;34.73;;;4.40;99.90;;;;;;10321822;28;20061;-83
2022/12/06 12:47:02;;;;;;;130.10;58.70;;;4.40;99.90;;;;;;10321224;28;20466;-85
2022/12/06 12:52:23;;;;;;;248.73;110.87;;;4.50;99.90;;;;;;10321232;28;20040;-83
2022/12/06 12:57:24;;;;;;;186.07;68.20;;;4.50;99.90;;;;;;10321130;28;20076;-84
2022/12/06 13:02:28;;;;;;;117.37;47.93;;;4.50;99.90;;;;;;10320505;28;20141;-83
2022/12/06 13:07:33;;;;;;;112.97;43.07;;;4.50;99.90;;;;;;10320372;28;20073;-84
2022/12/06 13:12:53;;;;;;;68.70;26.63;;;4.50;99.90;;;;;;10320084;28;20054;-82
2022/12/06 13:18:01;;;;;;;108.03;39.33;;;4.50;99.90;;;;;;10311406;28;20455;-84
2022/12/06 13:23:13;;;;;;;85.20;31.90;;;4.40;99.90;;;;;;10305732;28;20038;-84
2022/12/06 13:28:19;;;;;;;99.47;36.33;;;4.40;99.90;;;;;;10318376;28;20426;-83
2022/12/06 13:33:24;;;;;;;;;;;4.30;99.90;;;;;;10323022;28;20041;-84
2022/12/06 13:38:30;;;;;;;93.53;33.60;;;4.40;99.90;;;;;;10319677;28;20297;-84
2022/12/06 13:43:31;;;;;;;88.80;31.63;;;4.30;99.90;;;;;;10319644;28;20387;-84
2022/12/06 13:48:57;;;;;;;101.93;38.87;;;4.30;99.90;;;;;;10319000;28;20041;-84
2022/12/06 13:54:04;;;;;;;;;;;4.20;99.90;;;;;;10319993;28;20552;-84
2022/12/06 13:59:10;;;;;;;120.30;41.65;;;4.20;99.90;;;;;;10319708;28;19968;-84
2022/12/06 14:04:38;;;;;;;116.73;39.17;;;4.10;99.90;;;;;;10318689;28;20398;-83
2022/12/06 14:09:45;;;;;;;106.47;40.07;;;4.10;99.90;;;;;;10315411;28;20169;-83
2022/12/06 14:14:56;;;;;;;90.60;32.77;;;4.10;99.90;;;;;;10318358;28;20034;-83
2022/12/06 14:19:58;;;;;;;83.83;30.20;;;4.00;99.90;;;;;;10317049;28;20038;-83
2022/12/06 14:25:16;;;;;;;94.47;33.93;;;3.90;99.90;;;;;;10332352;28;20549;-83
2022/12/06 14:30:20;;;;;;;97.70;35.73;;;3.90;99.90;;;;;;10318467;28;20138;-83
2022/12/06 14:35:34;;;;;;;114.47;37.80;;;3.90;99.90;;;;;;10317465;28;20109;-82
2022/12/06 14:46:10;;;;;;;84.20;30.77;;;3.80;99.90;;;;;;10319315;28;20042;-82
2022/12/06 14:51:21;;;;;;;92.73;34.10;;;3.70;99.90;;;;;;10322811;28;20046;-82
2022/12/06 14:56:35;;;;;;;92.50;36.27;;;3.70;99.90;;;;;;10326051;28;20076;-82
2022/12/06 15:01:46;;;;;;;100.27;37.57;;;3.70;99.90;;;;;;10325284;28;20065;-82
2022/12/06 15:06:52;;;;;;;99.00;36.50;;;3.70;99.90;;;;;;10324334;28;20026;-83
2022/12/06 15:17:45;;;;;;;147.00;50.37;;;3.50;99.90;;;;;;10299186;28;20046;-82
2022/12/06 15:22:45;;;;;;;143.70;47.80;;;3.60;99.90;;;;;;10322394;28;20026;-82
2022/12/06 15:27:46;;;;;;;138.97;54.63;;;3.60;99.90;;;;;;10323927;28;20031;-84
2022/12/06 15:32:46;;;;;;;91.40;37.10;;;3.50;99.90;;;;;;10324211;28;20044;-82
2022/12/06 15:37:47;;;;;;;97.43;37.20;;;3.40;99.90;;;;;;10323695;28;20038;-81
2022/12/06 15:42:47;;;;;;;100.03;40.90;;;3.30;99.90;;;;;;10323765;28;20031;-82
2022/12/06 15:47:50;;;;;;;84.20;33.23;;;3.30;99.90;;;;;;10322953;28;20045;-81
2022/12/06 15:52:51;;;;;;;77.37;30.97;;;3.20;99.90;;;;;;10323166;28;20565;-84
2022/12/06 15:57:51;;;;;;;80.27;32.47;;;3.20;99.90;;;;;;10322872;28;20045;-84
2022/12/06 16:02:53;;;;;;;89.67;31.97;;;3.10;99.90;;;;;;10322403;28;20490;-81
2022/12/06 16:07:53;;;;;;;84.27;30.70;;;3.00;99.90;;;;;;10320991;28;20058;-81
2022/12/06 16:18:13;;;;;;;113.10;46.03;;;2.90;99.90;;;;;;10322880;28;20152;-82
2022/12/06 16:28:37;;;;;;;137.53;54.80;;;2.80;99.90;;;;;;10321282;28;20133;-82
2022/12/06 16:33:37;;;;;;;109.17;47.07;;;2.80;99.90;;;;;;10321212;28;20038;-83
2022/12/06 16:38:38;;;;;;;138.70;52.90;;;2.80;99.90;;;;;;10316662;28;20034;-83
2022/12/06 16:43:38;;;;;;;132.97;51.13;;;2.70;99.90;;;;;;10322674;28;20466;-82
2022/12/06 16:48:39;;;;;;;124.37;49.33;;;2.60;99.90;;;;;;10320591;28;20664;-83
2022/12/06 16:53:39;;;;;;;118.83;47.23;;;2.60;99.90;;;;;;10324145;28;20030;-83
2022/12/06 16:58:40;;;;;;;121.43;51.90;;;2.50;99.90;;;;;;10321838;28;20038;-82
2022/12/06 17:03:40;;;;;;;117.93;49.80;;;2.40;99.90;;;;;;10305040;28;20129;-82
2022/12/06 17:08:41;;;;;;;91.73;38.30;;;2.40;99.90;;;;;;10319470;28;20549;-81
2022/12/06 17:13:41;;;;;;;84.93;33.60;;;2.30;99.90;;;;;;10326697;28;20689;-81
2022/12/06 17:18:42;;;;;;;86.80;37.87;;;2.30;99.90;;;;;;10319528;28;20450;-81
2022/12/06 17:23:43;;;;;;;84.63;34.57;;;2.30;99.90;;;;;;10319390;28;20097;-81
2022/12/06 17:28:44;;;;;;;62.47;25.63;;;2.20;99.90;;;;;;10320054;28;20113;-82
2022/12/06 17:33:45;;;;;;;86.37;36.30;;;2.20;99.90;;;;;;10319722;28;20038;-82
2022/12/06 17:38:45;;;;;;;72.73;28.07;;;2.10;99.90;;;;;;10318824;28;20529;-82
2022/12/06 17:43:46;;;;;;;86.33;35.93;;;2.10;99.90;;;;;;10319145;28;20382;-82
2022/12/06 17:48:46;;;;;;;89.50;38.57;;;2.00;99.90;;;;;;10333222;28;20200;-81
2022/12/06 17:53:47;;;;;;;90.23;34.93;;;2.00;99.90;;;;;;10318948;28;20483;-81
2022/12/06 17:58:48;;;;;;;98.60;38.27;;;1.90;99.90;;;;;;10319719;28;20038;-81
2022/12/06 18:03:53;;;;;;;90.30;36.37;;;1.90;99.90;;;;;;10318491;28;20046;-81
2022/12/06 18:08:54;;;;;;;136.30;48.80;;;1.80;99.90;;;;;;10317957;28;20050;-82
2022/12/06 18:13:55;;;;;;;125.07;44.27;;;1.80;99.90;;;;;;10315646;28;20501;-81
2022/12/06 18:18:59;;;;;;;86.67;32.30;;;1.70;99.90;;;;;;10317960;28;20031;-81
2022/12/06 18:23:59;;;;;;;118.70;40.83;;;1.80;99.90;;;;;;10320111;28;20061;-83
2022/12/06 18:29:02;;;;;;;120.77;44.03;;;1.70;99.90;;;;;;10314211;28;20508;-83
2022/12/06 18:34:02;;;;;;;153.77;49.50;;;1.60;99.90;;;;;;10325620;28;20084;-83
2022/12/06 18:39:05;;;;;;;148.27;53.20;;;1.70;99.90;;;;;;10323312;28;20026;-83
2022/12/06 18:44:06;;;;;;;130.67;47.40;;;1.60;99.90;;;;;;10325734;28;20039;-82
2022/12/06 18:49:11;;;;;;;152.83;53.27;;;1.60;99.90;;;;;;10324699;28;20556;-83
2022/12/06 18:54:12;;;;;;;131.10;49.17;;;1.50;99.90;;;;;;10325037;28;20037;-81
2022/12/06 18:59:13;;;;;;;140.10;50.80;;;1.50;99.90;;;;;;10324766;28;20112;-82
2022/12/06 19:04:15;;;;;;;126.53;50.37;;;1.50;99.90;;;;;;10323656;28;20034;-84
2022/12/06 19:09:16;;;;;;;110.83;44.00;;;1.40;99.90;;;;;;10324612;28;20053;-82
2022/12/06 19:14:16;;;;;;;114.73;45.57;;;1.40;99.90;;;;;;10328084;28;20032;-82
2022/12/06 19:19:22;;;;;;;97.83;38.80;;;1.40;99.90;;;;;;10317913;28;20034;-84
2022/12/06 19:24:24;;;;;;;;;;;1.40;99.90;;;;;;10323921;28;20100;-83
2022/12/06 19:29:26;;;;;;;119.97;42.33;;;1.40;99.90;;;;;;10323636;28;19921;-81
2022/12/06 19:34:28;;;;;;;120.73;46.63;;;1.40;99.90;;;;;;10323283;28;20038;-83
2022/12/06 19:39:28;;;;;;;115.60;43.73;;;1.40;99.90;;;;;;10323571;28;20117;-84
2022/12/06 19:44:29;;;;;;;101.53;40.10;;;1.40;99.90;;;;;;10322978;28;20034;-83
2022/12/06 19:49:30;;;;;;;98.00;38.47;;;1.40;99.90;;;;;;10322458;28;20046;-84
2022/12/06 19:54:32;;;;;;;131.67;43.87;;;1.40;99.90;;;;;;10323887;28;20039;-84
2022/12/06 19:59:34;;;;;;;135.10;52.10;;;1.40;99.90;;;;;;10323150;28;20053;-84
2022/12/06 20:04:38;;;;;;;132.23;50.10;;;1.40;99.90;;;;;;10312273;28;20115;-87
2022/12/06 20:09:39;;;;;;;86.03;35.50;;;1.40;99.90;;;;;;10321020;28;20105;-86
2022/12/06 20:14:41;;;;;;;92.20;35.50;;;1.50;99.90;;;;;;10320560;28;20169;-84
2022/12/06 20:19:42;;;;;;;103.30;39.83;;;1.40;99.90;;;;;;10321572;28;20208;-84
2022/12/06 20:24:43;;;;;;;105.00;39.77;;;1.40;99.90;;;;;;10322106;28;20084;-85
2022/12/06 20:29:44;;;;;;;115.37;40.73;;;1.40;99.90;;;;;;10319047;28;20062;-86
2022/12/06 20:34:44;;;;;;;85.23;36.27;;;1.40;99.90;;;;;;10320492;28;20568;-83
2022/12/06 20:39:45;;;;;;;101.90;38.97;;;1.40;99.90;;;;;;10337242;23;20470;-84
2022/12/06 20:44:45;;;;;;;93.13;34.30;;;1.40;99.90;;;;;;10311250;28;20042;-85
2022/12/06 20:49:46;;;;;;;103.63;38.97;;;1.40;99.90;;;;;;10318280;28;20042;-84
2022/12/06 20:54:47;;;;;;;102.70;40.23;;;1.40;99.90;;;;;;10316980;28;20046;-84
2022/12/06 20:59:48;;;;;;;108.77;40.73;;;1.30;99.90;;;;;;10320868;28;20026;-84
2022/12/06 21:04:48;;;;;;;143.30;55.13;;;1.40;99.90;;;;;;10314983;28;20040;-84
2022/12/06 21:09:49;;;;;;;179.30;56.43;;;1.40;99.90;;;;;;10321464;28;20042;-84
2022/12/06 21:14:49;;;;;;;200.47;65.60;;;1.40;99.90;;;;;;10320849;28;20044;-84
2022/12/06 21:19:50;;;;;;;250.03;79.57;;;1.40;99.90;;;;;;10318777;28;20038;-85
2022/12/06 21:24:55;;;;;;;227.03;75.10;;;1.40;99.90;;;;;;10320782;28;20031;-86
2022/12/06 21:29:55;;;;;;;169.40;55.87;;;1.40;99.90;;;;;;10319232;28;20042;-85
2022/12/06 21:34:56;;;;;;;271.27;87.83;;;1.40;99.90;;;;;;10318172;28;20038;-85
2022/12/06 21:39:56;;;;;;;248.73;74.70;;;1.40;99.90;;;;;;10319649;28;20661;-84
2022/12/06 21:44:57;;;;;;;208.93;66.40;;;1.40;99.90;;;;;;10319603;28;20121;-85
2022/12/06 21:49:57;;;;;;;187.63;57.80;;;1.40;99.90;;;;;;10319127;28;20129;-85
2022/12/06 21:54:58;;;;;;;187.57;56.70;;;1.40;99.90;;;;;;10319774;28;20097;-85
2022/12/06 21:59:59;;;;;;;202.47;62.60;;;1.40;99.90;;;;;;10324902;28;20030;-85
2022/12/06 22:04:59;;;;;;;160.17;51.07;;;1.50;99.90;;;;;;10326971;28;20562;-85
2022/12/06 22:10:00;;;;;;;199.47;61.63;;;1.50;99.90;;;;;;10325803;28;20042;-84
2022/12/06 22:15:01;;;;;;;172.37;57.20;;;1.50;99.90;;;;;;10326770;28;20034;-85
2022/12/06 22:20:01;;;;;;;194.13;65.67;;;1.50;99.90;;;;;;10324737;28;20490;-84
2022/12/06 22:25:02;;;;;;;179.73;59.43;;;1.50;99.90;;;;;;10324798;28;20451;-84
2022/12/06 22:30:03;;;;;;;164.93;54.57;;;1.50;99.90;;;;;;10326662;28;20129;-87
2022/12/06 22:35:04;;;;;;;173.83;58.10;;;1.40;99.90;;;;;;10325648;28;20033;-86
2022/12/06 22:40:05;;;;;;;169.87;57.73;;;1.40;99.90;;;;;;10326004;28;20052;-84
2022/12/06 22:45:06;;;;;;;142.83;50.30;;;1.40;99.90;;;;;;10324151;28;20041;-84
2022/12/06 22:50:07;;;;;;;220.73;76.07;;;1.40;99.90;;;;;;10323989;28;20038;-86
2022/12/06 22:55:08;;;;;;;196.53;71.80;;;1.40;99.90;;;;;;10324512;28;20065;-85
2022/12/06 23:00:09;;;;;;;180.90;64.50;;;1.40;99.90;;;;;;10324442;28;20038;-85
2022/12/06 23:05:09;;;;;;;204.77;61.40;;;1.40;99.90;;;;;;10324907;28;20117;-86
2022/12/06 23:10:10;;;;;;;163.67;58.10;;;1.40;99.90;;;;;;10322522;28;20502;-85
2022/12/06 23:15:10;;;;;;;162.37;50.40;;;1.40;99.90;;;;;;10323984;28;20073;-86
2022/12/06 23:20:11;;;;;;;172.57;57.13;;;1.50;99.90;;;;;;10323968;28;20084;-85
2022/12/06 23:25:11;;;;;;;147.30;50.07;;;1.50;99.90;;;;;;10323131;28;20034;-85
2022/12/06 23:30:12;;;;;;;163.43;54.80;;;1.40;99.90;;;;;;10323645;28;20078;-84
2022/12/06 23:35:13;;;;;;;152.70;54.60;;;1.40;99.90;;;;;;10323860;28;20038;-86
2022/12/06 23:40:13;;;;;;;175.77;55.33;;;1.50;99.90;;;;;;10322866;28;20062;-84
2022/12/06 23:45:14;;;;;;;184.23;58.20;;;1.40;99.90;;;;;;10322906;28;20383;-85
2022/12/06 23:50:14;;;;;;;177.37;56.70;;;1.40;99.90;;;;;;10322719;28;20046;-85
2022/12/06 23:55:15;;;;;;;154.47;53.70;;;1.50;99.90;;;;;;10338368;23;20133;-85
